Salem, MA (01970)

8:45 PM EDT on September 02, 2014 (GMT -0400)
Essex Street near Beckford | Change Station
CLOSE
Current Station
Personal Weather Station
Location: Salem, MA
Elevation: 46 ft
Nearby Weather Stations

Elev 46 ft 42.52 °N, 70.90 °W | Updated 1 minute ago

Mostly Cloudy
Mostly Cloudy
74.4 °F
Feels Like 73 °F
N
0.0
Wind Variable Wind from ESE
Gusts 0.0 mph

Today
High -- | Low -- °F
--% Chance of Precip.
Yesterday
High -- | Low -- °F
Precip. -- in
6:09 AM 7:16 PM
First Quarter, 56% visible
Pressure 29.76 in
Visibility 10.0 miles
Clouds Few 4000 ft
Scattered Clouds 10000 ft
Mostly Cloudy 25000 ft
Heat Index 73 °F
Dew Point 71 °F
Humidity 90%
Rainfall 0.03 in
Snow Depth Not available.
UV 0 out of 12
Pollen 8.20 out of 12
PM2.5 Good
Flu Activity Not available.
METAR KBVY 022353Z 17004KT 10SM FEW040 SCT100 BKN250 23/21 A2977 RMK AO2 SLP076 60005 T02280211 10328 20228 58005

More Conditions Fewer Conditions

Pressure 29.76 in
Visibility 10.0 miles
Clouds Few 4000 ft
Scattered Clouds 10000 ft
Mostly Cloudy 25000 ft
Heat Index 73 °F
Dew Point 71 °F
Humidity 90%
Rainfall 0.03 in
Snow Depth Not available.
UV 0 out of 12
Pollen 8.20 out of 12
PM2.5 Good
Flu Activity Not available.
METAR KBVY 022353Z 17004KT 10SM FEW040 SCT100 BKN250 23/21 A2977 RMK AO2 SLP076 60005 T02280211 10328 20228 58005

More Conditions Fewer Conditions

10-Day Weather Forecast

Almanac

Astronomy

Sep. 02, 2014 Rise Set
Actual Time 6:09 AM EDT 7:16 PM EDT
Civil Twilight 5:40 AM EDT 7:44 PM EDT
Nautical Twilight 5:06 AM EDT 8:19 PM EDT
Astronomical Twilight 4:29 AM EDT 8:55 PM EDT
Moon 1:59 PM EDT (9/2) 11:58 PM EDT (9/2)
Length of Visible Light 14h 04m
Length of Day
13h 06m
Tomorrow will be 2m 46s shorter.
First Quarter, 56% of the Moon is Illuminated
Today
First Quarter
Sep 8
Full
Sep 15
Last Quarter
Sep 24
New
Oct 1
First Quarter

Today's Extremes

State Highs State Lows

Community

WunderPhotos

Upload Photos

1,749,808 photos uploaded!

Nearby

Air Quality

  Air Quality AQ Index Pollutant
Yesterday Good
PM2.5
Yesterday Good
OZONE
Current Good
PM2.5
Tuesday Good
PM2.5
Tuesday Good
OZONE
Wednesday Good
PM2.5
Wednesday Good
OZONE

Snow Depth

Station Depth Elevation
No new snow has been reported.

Earthquake Activity

City Distance Mag. Time & Date
No recent earthquake activity has been reported nearby.
Minimum magnitude displayed is 2.5.

Coastal Water Temperatures

Place Temperature
Boston, MA 66.9 °F
Fall River, MA 75.9 °F

Nearby Weather Stations